sensor_id;sensor_type;location;lat;lon;timestamp;P1;durP1;ratioP1;P2;durP2;ratioP2
22184;SDS011;11258;52.516;13.318;2023-11-19T00:00:21;7.00;;;4.70;;
22184;SDS011;11258;52.516;13.318;2023-11-19T00:02:48;5.83;;;4.33;;
22184;SDS011;11258;52.516;13.318;2023-11-19T00:05:14;6.17;;;4.27;;
22184;SDS011;11258;52.516;13.318;2023-11-19T00:07:40;7.20;;;4.60;;
22184;SDS011;11258;52.516;13.318;2023-11-19T00:10:09;7.80;;;4.60;;
22184;SDS011;11258;52.516;13.318;2023-11-19T00:12:36;6.90;;;4.80;;
22184;SDS011;11258;52.516;13.318;2023-11-19T00:15:03;8.23;;;4.80;;
22184;SDS011;11258;52.516;13.318;2023-11-19T00:17:30;8.73;;;4.40;;
22184;SDS011;11258;52.516;13.318;2023-11-19T00:19:56;5.83;;;4.53;;
22184;SDS011;11258;52.516;13.318;2023-11-19T00:22:22;7.30;;;4.60;;
22184;SDS011;11258;52.516;13.318;2023-11-19T00:24:48;6.63;;;4.37;;
22184;SDS011;11258;52.516;13.318;2023-11-19T00:27:13;7.87;;;4.80;;
22184;SDS011;11258;52.516;13.318;2023-11-19T00:29:39;8.93;;;4.70;;
22184;SDS011;11258;52.516;13.318;2023-11-19T00:32:05;6.67;;;4.67;;
22184;SDS011;11258;52.516;13.318;2023-11-19T00:34:32;9.57;;;4.40;;
22184;SDS011;11258;52.516;13.318;2023-11-19T00:36:58;8.80;;;5.00;;
22184;SDS011;11258;52.516;13.318;2023-11-19T00:39:23;5.53;;;4.47;;
22184;SDS011;11258;52.516;13.318;2023-11-19T00:41:49;8.90;;;4.83;;
22184;SDS011;11258;52.516;13.318;2023-11-19T00:44:15;9.70;;;4.23;;
22184;SDS011;11258;52.516;13.318;2023-11-19T00:46:40;8.37;;;4.53;;
22184;SDS011;11258;52.516;13.318;2023-11-19T00:49:06;5.87;;;4.33;;
22184;SDS011;11258;52.516;13.318;2023-11-19T00:51:32;6.47;;;4.13;;
22184;SDS011;11258;52.516;13.318;2023-11-19T00:53:58;8.47;;;4.50;;
22184;SDS011;11258;52.516;13.318;2023-11-19T00:56:24;5.63;;;3.87;;
22184;SDS011;11258;52.516;13.318;2023-11-19T00:58:49;6.00;;;4.10;;
22184;SDS011;11258;52.516;13.318;2023-11-19T01:01:15;7.10;;;4.20;;
22184;SDS011;11258;52.516;13.318;2023-11-19T01:03:41;5.93;;;3.67;;
22184;SDS011;11258;52.516;13.318;2023-11-19T01:06:06;6.07;;;4.07;;
22184;SDS011;11258;52.516;13.318;2023-11-19T01:08:33;6.40;;;3.67;;
22184;SDS011;11258;52.516;13.318;2023-11-19T01:11:00;5.53;;;4.40;;
22184;SDS011;11258;52.516;13.318;2023-11-19T01:13:27;5.93;;;3.67;;
22184;SDS011;11258;52.516;13.318;2023-11-19T01:15:52;7.27;;;4.43;;
22184;SDS011;11258;52.516;13.318;2023-11-19T01:18:18;6.97;;;3.83;;
22184;SDS011;11258;52.516;13.318;2023-11-19T01:20:44;5.20;;;3.27;;
22184;SDS011;11258;52.516;13.318;2023-11-19T01:23:09;9.27;;;3.93;;
22184;SDS011;11258;52.516;13.318;2023-11-19T01:25:35;5.07;;;3.53;;
22184;SDS011;11258;52.516;13.318;2023-11-19T01:28:02;6.90;;;4.17;;
22184;SDS011;11258;52.516;13.318;2023-11-19T01:30:28;5.57;;;4.23;;
22184;SDS011;11258;52.516;13.318;2023-11-19T01:32:53;6.70;;;4.17;;
22184;SDS011;11258;52.516;13.318;2023-11-19T01:35:19;9.53;;;4.03;;
22184;SDS011;11258;52.516;13.318;2023-11-19T01:37:44;6.00;;;3.83;;
22184;SDS011;11258;52.516;13.318;2023-11-19T01:40:10;5.93;;;3.53;;
22184;SDS011;11258;52.516;13.318;2023-11-19T01:42:40;5.00;;;3.60;;
22184;SDS011;11258;52.516;13.318;2023-11-19T01:45:06;6.77;;;3.87;;
22184;SDS011;11258;52.516;13.318;2023-11-19T01:47:34;7.33;;;4.27;;
22184;SDS011;11258;52.516;13.318;2023-11-19T01:50:00;5.73;;;3.67;;
22184;SDS011;11258;52.516;13.318;2023-11-19T01:52:31;8.17;;;4.33;;
22184;SDS011;11258;52.516;13.318;2023-11-19T01:54:59;5.73;;;3.73;;
22184;SDS011;11258;52.516;13.318;2023-11-19T01:57:25;5.70;;;3.57;;
22184;SDS011;11258;52.516;13.318;2023-11-19T01:59:51;5.30;;;3.70;;
22184;SDS011;11258;52.516;13.318;2023-11-19T02:02:19;6.97;;;3.90;;
22184;SDS011;11258;52.516;13.318;2023-11-19T02:04:46;5.73;;;3.80;;
22184;SDS011;11258;52.516;13.318;2023-11-19T02:07:13;6.07;;;3.63;;
22184;SDS011;11258;52.516;13.318;2023-11-19T02:09:42;5.87;;;3.73;;
22184;SDS011;11258;52.516;13.318;2023-11-19T02:12:08;5.93;;;3.57;;
22184;SDS011;11258;52.516;13.318;2023-11-19T02:14:36;6.63;;;4.30;;
22184;SDS011;11258;52.516;13.318;2023-11-19T02:17:02;5.47;;;3.50;;
22184;SDS011;11258;52.516;13.318;2023-11-19T02:19:28;5.57;;;3.30;;
22184;SDS011;11258;52.516;13.318;2023-11-19T02:21:54;4.93;;;3.63;;
22184;SDS011;11258;52.516;13.318;2023-11-19T02:24:21;5.30;;;3.47;;
22184;SDS011;11258;52.516;13.318;2023-11-19T02:27:07;6.23;;;3.83;;
22184;SDS011;11258;52.516;13.318;2023-11-19T02:29:40;6.83;;;3.67;;
22184;SDS011;11258;52.516;13.318;2023-11-19T02:32:07;6.30;;;3.40;;
22184;SDS011;11258;52.516;13.318;2023-11-19T02:34:34;5.57;;;4.03;;
22184;SDS011;11258;52.516;13.318;2023-11-19T02:37:00;6.93;;;3.50;;
22184;SDS011;11258;52.516;13.318;2023-11-19T02:39:25;5.93;;;3.53;;
22184;SDS011;11258;52.516;13.318;2023-11-19T02:41:51;6.27;;;3.83;;
22184;SDS011;11258;52.516;13.318;2023-11-19T02:44:18;6.00;;;3.90;;
22184;SDS011;11258;52.516;13.318;2023-11-19T02:46:43;5.73;;;3.77;;
22184;SDS011;11258;52.516;13.318;2023-11-19T02:49:09;5.07;;;3.80;;
22184;SDS011;11258;52.516;13.318;2023-11-19T02:51:35;4.90;;;3.40;;
22184;SDS011;11258;52.516;13.318;2023-11-19T02:54:01;6.03;;;3.73;;
22184;SDS011;11258;52.516;13.318;2023-11-19T02:56:28;5.97;;;3.80;;
22184;SDS011;11258;52.516;13.318;2023-11-19T02:58:59;5.23;;;3.03;;
22184;SDS011;11258;52.516;13.318;2023-11-19T03:01:32;4.13;;;3.07;;
22184;SDS011;11258;52.516;13.318;2023-11-19T03:04:00;4.53;;;3.10;;
22184;SDS011;11258;52.516;13.318;2023-11-19T03:06:27;5.60;;;3.33;;
22184;SDS011;11258;52.516;13.318;2023-11-19T03:08:53;6.97;;;3.13;;
22184;SDS011;11258;52.516;13.318;2023-11-19T03:11:19;8.40;;;3.80;;
22184;SDS011;11258;52.516;13.318;2023-11-19T03:13:45;7.07;;;3.13;;
22184;SDS011;11258;52.516;13.318;2023-11-19T03:16:11;5.03;;;2.90;;
22184;SDS011;11258;52.516;13.318;2023-11-19T03:18:37;4.90;;;2.77;;
22184;SDS011;11258;52.516;13.318;2023-11-19T03:21:05;5.50;;;3.17;;
22184;SDS011;11258;52.516;13.318;2023-11-19T03:23:33;4.87;;;3.20;;
22184;SDS011;11258;52.516;13.318;2023-11-19T03:25:59;5.10;;;3.27;;
22184;SDS011;11258;52.516;13.318;2023-11-19T03:28:28;4.97;;;3.27;;
22184;SDS011;11258;52.516;13.318;2023-11-19T03:30:54;5.07;;;3.17;;
22184;SDS011;11258;52.516;13.318;2023-11-19T03:33:20;6.20;;;3.13;;
22184;SDS011;11258;52.516;13.318;2023-11-19T03:35:45;5.07;;;2.60;;
22184;SDS011;11258;52.516;13.318;2023-11-19T03:38:11;4.70;;;3.57;;
22184;SDS011;11258;52.516;13.318;2023-11-19T03:40:37;4.63;;;3.00;;
22184;SDS011;11258;52.516;13.318;2023-11-19T03:43:04;5.40;;;3.43;;
22184;SDS011;11258;52.516;13.318;2023-11-19T03:45:30;5.00;;;2.80;;
22184;SDS011;11258;52.516;13.318;2023-11-19T03:47:55;4.97;;;2.87;;
22184;SDS011;11258;52.516;13.318;2023-11-19T03:50:21;7.47;;;3.60;;
22184;SDS011;11258;52.516;13.318;2023-11-19T03:52:47;5.93;;;3.53;;
22184;SDS011;11258;52.516;13.318;2023-11-19T03:55:13;4.80;;;3.53;;
22184;SDS011;11258;52.516;13.318;2023-11-19T03:57:39;5.70;;;3.43;;
22184;SDS011;11258;52.516;13.318;2023-11-19T04:00:05;5.87;;;3.20;;
22184;SDS011;11258;52.516;13.318;2023-11-19T04:02:39;4.80;;;3.50;;
22184;SDS011;11258;52.516;13.318;2023-11-19T04:05:05;8.37;;;4.27;;
22184;SDS011;11258;52.516;13.318;2023-11-19T04:07:34;5.87;;;3.60;;
22184;SDS011;11258;52.516;13.318;2023-11-19T04:10:01;6.50;;;3.50;;
22184;SDS011;11258;52.516;13.318;2023-11-19T04:12:26;5.60;;;3.80;;
22184;SDS011;11258;52.516;13.318;2023-11-19T04:14:52;7.13;;;4.20;;
22184;SDS011;11258;52.516;13.318;2023-11-19T04:17:18;5.90;;;4.07;;
22184;SDS011;11258;52.516;13.318;2023-11-19T04:19:43;6.37;;;3.67;;
22184;SDS011;11258;52.516;13.318;2023-11-19T04:22:09;8.27;;;4.53;;
22184;SDS011;11258;52.516;13.318;2023-11-19T04:24:35;7.47;;;3.50;;
22184;SDS011;11258;52.516;13.318;2023-11-19T04:27:00;7.87;;;3.67;;
22184;SDS011;11258;52.516;13.318;2023-11-19T04:29:26;7.67;;;4.17;;
22184;SDS011;11258;52.516;13.318;2023-11-19T04:31:52;6.87;;;3.83;;
22184;SDS011;11258;52.516;13.318;2023-11-19T04:34:17;8.03;;;4.50;;
22184;SDS011;11258;52.516;13.318;2023-11-19T04:36:43;6.43;;;3.83;;
22184;SDS011;11258;52.516;13.318;2023-11-19T04:39:09;6.27;;;3.97;;
22184;SDS011;11258;52.516;13.318;2023-11-19T04:41:45;6.50;;;3.90;;
22184;SDS011;11258;52.516;13.318;2023-11-19T04:44:19;5.40;;;4.13;;
22184;SDS011;11258;52.516;13.318;2023-11-19T04:46:45;6.20;;;4.20;;
22184;SDS011;11258;52.516;13.318;2023-11-19T04:49:12;6.80;;;4.50;;
22184;SDS011;11258;52.516;13.318;2023-11-19T04:51:39;6.80;;;4.17;;
22184;SDS011;11258;52.516;13.318;2023-11-19T04:54:09;6.40;;;4.07;;
22184;SDS011;11258;52.516;13.318;2023-11-19T04:56:37;4.50;;;3.33;;
22184;SDS011;11258;52.516;13.318;2023-11-19T04:59:04;5.47;;;4.23;;
22184;SDS011;11258;52.516;13.318;2023-11-19T05:01:33;8.30;;;4.90;;
22184;SDS011;11258;52.516;13.318;2023-11-19T05:04:00;7.70;;;4.00;;
22184;SDS011;11258;52.516;13.318;2023-11-19T05:06:27;7.73;;;4.47;;
22184;SDS011;11258;52.516;13.318;2023-11-19T05:08:54;7.53;;;4.77;;
22184;SDS011;11258;52.516;13.318;2023-11-19T05:11:20;8.07;;;4.57;;
22184;SDS011;11258;52.516;13.318;2023-11-19T05:13:45;7.43;;;4.10;;
22184;SDS011;11258;52.516;13.318;2023-11-19T05:16:11;8.30;;;4.67;;
22184;SDS011;11258;52.516;13.318;2023-11-19T05:18:40;7.03;;;3.83;;
22184;SDS011;11258;52.516;13.318;2023-11-19T05:21:06;8.07;;;5.03;;
22184;SDS011;11258;52.516;13.318;2023-11-19T05:23:32;9.63;;;4.70;;
22184;SDS011;11258;52.516;13.318;2023-11-19T05:26:01;7.43;;;4.37;;
22184;SDS011;11258;52.516;13.318;2023-11-19T05:28:27;7.10;;;4.23;;
22184;SDS011;11258;52.516;13.318;2023-11-19T05:30:52;7.13;;;4.87;;
22184;SDS011;11258;52.516;13.318;2023-11-19T05:33:18;6.87;;;4.00;;
22184;SDS011;11258;52.516;13.318;2023-11-19T05:35:44;5.73;;;4.07;;
22184;SDS011;11258;52.516;13.318;2023-11-19T05:38:09;6.20;;;4.27;;
22184;SDS011;11258;52.516;13.318;2023-11-19T05:40:35;6.03;;;4.23;;
22184;SDS011;11258;52.516;13.318;2023-11-19T05:43:01;5.80;;;3.70;;
22184;SDS011;11258;52.516;13.318;2023-11-19T05:45:27;6.87;;;4.67;;
22184;SDS011;11258;52.516;13.318;2023-11-19T05:47:52;9.20;;;4.57;;
22184;SDS011;11258;52.516;13.318;2023-11-19T05:50:18;7.80;;;4.03;;
22184;SDS011;11258;52.516;13.318;2023-11-19T05:52:44;6.73;;;3.90;;
22184;SDS011;11258;52.516;13.318;2023-11-19T05:55:10;6.53;;;4.13;;
22184;SDS011;11258;52.516;13.318;2023-11-19T05:57:36;7.13;;;3.60;;
22184;SDS011;11258;52.516;13.318;2023-11-19T06:00:02;7.33;;;4.37;;
22184;SDS011;11258;52.516;13.318;2023-11-19T06:02:32;4.53;;;3.73;;
22184;SDS011;11258;52.516;13.318;2023-11-19T06:04:58;7.67;;;3.97;;
22184;SDS011;11258;52.516;13.318;2023-11-19T06:07:23;5.63;;;3.67;;
22184;SDS011;11258;52.516;13.318;2023-11-19T06:09:50;6.37;;;4.10;;
22184;SDS011;11258;52.516;13.318;2023-11-19T06:12:15;6.57;;;3.87;;
22184;SDS011;11258;52.516;13.318;2023-11-19T06:14:41;6.67;;;3.93;;
22184;SDS011;11258;52.516;13.318;2023-11-19T06:17:07;7.10;;;4.17;;
22184;SDS011;11258;52.516;13.318;2023-11-19T06:19:33;6.83;;;4.23;;
22184;SDS011;11258;52.516;13.318;2023-11-19T06:21:59;7.67;;;4.17;;
22184;SDS011;11258;52.516;13.318;2023-11-19T06:24:25;6.80;;;4.13;;
22184;SDS011;11258;52.516;13.318;2023-11-19T06:26:50;6.60;;;4.00;;
22184;SDS011;11258;52.516;13.318;2023-11-19T06:29:16;7.73;;;4.70;;
22184;SDS011;11258;52.516;13.318;2023-11-19T06:31:44;5.53;;;3.83;;
22184;SDS011;11258;52.516;13.318;2023-11-19T06:34:11;6.87;;;4.57;;
22184;SDS011;11258;52.516;13.318;2023-11-19T06:36:37;6.30;;;4.30;;
22184;SDS011;11258;52.516;13.318;2023-11-19T06:39:03;7.13;;;4.30;;
22184;SDS011;11258;52.516;13.318;2023-11-19T06:41:29;6.90;;;3.87;;
22184;SDS011;11258;52.516;13.318;2023-11-19T06:43:54;6.27;;;4.20;;
22184;SDS011;11258;52.516;13.318;2023-11-19T06:46:20;5.23;;;3.60;;
22184;SDS011;11258;52.516;13.318;2023-11-19T06:48:46;6.00;;;4.03;;
22184;SDS011;11258;52.516;13.318;2023-11-19T06:51:12;5.67;;;4.37;;
22184;SDS011;11258;52.516;13.318;2023-11-19T06:53:38;7.30;;;4.30;;
22184;SDS011;11258;52.516;13.318;2023-11-19T06:56:28;6.03;;;4.00;;
22184;SDS011;11258;52.516;13.318;2023-11-19T06:58:52;7.27;;;3.83;;
22184;SDS011;11258;52.516;13.318;2023-11-19T07:01:18;7.30;;;3.87;;
22184;SDS011;11258;52.516;13.318;2023-11-19T07:03:45;5.27;;;3.80;;
22184;SDS011;11258;52.516;13.318;2023-11-19T07:06:11;7.40;;;5.07;;
22184;SDS011;11258;52.516;13.318;2023-11-19T07:08:38;7.60;;;3.73;;
22184;SDS011;11258;52.516;13.318;2023-11-19T07:11:04;5.40;;;4.10;;
22184;SDS011;11258;52.516;13.318;2023-11-19T07:13:29;5.67;;;3.87;;
22184;SDS011;11258;52.516;13.318;2023-11-19T07:15:55;6.60;;;4.10;;
22184;SDS011;11258;52.516;13.318;2023-11-19T07:18:21;5.37;;;3.50;;
22184;SDS011;11258;52.516;13.318;2023-11-19T07:20:47;6.83;;;3.40;;
22184;SDS011;11258;52.516;13.318;2023-11-19T07:23:13;6.13;;;3.70;;
22184;SDS011;11258;52.516;13.318;2023-11-19T07:25:42;4.67;;;3.70;;
22184;SDS011;11258;52.516;13.318;2023-11-19T07:28:08;6.53;;;4.03;;
22184;SDS011;11258;52.516;13.318;2023-11-19T07:30:35;6.33;;;3.77;;
22184;SDS011;11258;52.516;13.318;2023-11-19T07:33:00;5.40;;;3.50;;
22184;SDS011;11258;52.516;13.318;2023-11-19T07:35:28;5.83;;;3.40;;
22184;SDS011;11258;52.516;13.318;2023-11-19T07:37:55;5.20;;;3.20;;
22184;SDS011;11258;52.516;13.318;2023-11-19T07:40:22;5.10;;;3.13;;
22184;SDS011;11258;52.516;13.318;2023-11-19T07:42:48;6.57;;;4.13;;
22184;SDS011;11258;52.516;13.318;2023-11-19T07:45:14;5.73;;;3.80;;
22184;SDS011;11258;52.516;13.318;2023-11-19T07:47:39;5.40;;;3.90;;
22184;SDS011;11258;52.516;13.318;2023-11-19T07:50:05;3.83;;;2.90;;
22184;SDS011;11258;52.516;13.318;2023-11-19T07:52:31;6.33;;;3.50;;
22184;SDS011;11258;52.516;13.318;2023-11-19T07:54:57;5.33;;;3.77;;
22184;SDS011;11258;52.516;13.318;2023-11-19T07:57:22;8.63;;;4.00;;
22184;SDS011;11258;52.516;13.318;2023-11-19T07:59:49;6.43;;;3.67;;
22184;SDS011;11258;52.516;13.318;2023-11-19T08:02:15;5.27;;;3.70;;
22184;SDS011;11258;52.516;13.318;2023-11-19T08:04:40;7.00;;;4.57;;
22184;SDS011;11258;52.516;13.318;2023-11-19T08:07:10;6.90;;;4.10;;
22184;SDS011;11258;52.516;13.318;2023-11-19T08:09:36;8.60;;;4.13;;
22184;SDS011;11258;52.516;13.318;2023-11-19T08:12:02;6.57;;;3.97;;
22184;SDS011;11258;52.516;13.318;2023-11-19T08:14:28;5.57;;;3.57;;
22184;SDS011;11258;52.516;13.318;2023-11-19T08:16:54;5.50;;;3.70;;
22184;SDS011;11258;52.516;13.318;2023-11-19T08:19:20;5.33;;;3.70;;
22184;SDS011;11258;52.516;13.318;2023-11-19T08:21:45;7.10;;;4.27;;
22184;SDS011;11258;52.516;13.318;2023-11-19T08:24:11;7.73;;;4.00;;
22184;SDS011;11258;52.516;13.318;2023-11-19T08:26:36;5.37;;;3.63;;
22184;SDS011;11258;52.516;13.318;2023-11-19T08:29:02;6.43;;;4.10;;
22184;SDS011;11258;52.516;13.318;2023-11-19T08:31:28;6.77;;;4.00;;
22184;SDS011;11258;52.516;13.318;2023-11-19T08:33:54;7.47;;;4.30;;
22184;SDS011;11258;52.516;13.318;2023-11-19T08:36:19;6.37;;;3.70;;
22184;SDS011;11258;52.516;13.318;2023-11-19T08:38:45;6.13;;;3.53;;
22184;SDS011;11258;52.516;13.318;2023-11-19T08:41:11;6.20;;;3.83;;
22184;SDS011;11258;52.516;13.318;2023-11-19T08:43:37;5.70;;;3.67;;
22184;SDS011;11258;52.516;13.318;2023-11-19T08:46:03;5.37;;;3.63;;
22184;SDS011;11258;52.516;13.318;2023-11-19T08:48:34;7.53;;;4.20;;
22184;SDS011;11258;52.516;13.318;2023-11-19T08:50:59;6.13;;;3.60;;
22184;SDS011;11258;52.516;13.318;2023-11-19T08:53:25;7.43;;;4.50;;
22184;SDS011;11258;52.516;13.318;2023-11-19T08:55:50;5.73;;;4.03;;
22184;SDS011;11258;52.516;13.318;2023-11-19T08:58:16;10.53;;;4.17;;
22184;SDS011;11258;52.516;13.318;2023-11-19T09:00:43;7.80;;;4.10;;
22184;SDS011;11258;52.516;13.318;2023-11-19T09:03:08;5.93;;;3.50;;
22184;SDS011;11258;52.516;13.318;2023-11-19T09:05:34;4.90;;;3.70;;
22184;SDS011;11258;52.516;13.318;2023-11-19T09:08:00;5.57;;;3.70;;
22184;SDS011;11258;52.516;13.318;2023-11-19T09:10:25;7.17;;;3.37;;
22184;SDS011;11258;52.516;13.318;2023-11-19T09:12:52;4.50;;;3.37;;
22184;SDS011;11258;52.516;13.318;2023-11-19T09:15:17;4.80;;;3.23;;
22184;SDS011;11258;52.516;13.318;2023-11-19T09:17:43;5.37;;;3.47;;
22184;SDS011;11258;52.516;13.318;2023-11-19T09:20:09;4.67;;;3.10;;
22184;SDS011;11258;52.516;13.318;2023-11-19T09:22:37;6.03;;;2.93;;
22184;SDS011;11258;52.516;13.318;2023-11-19T09:25:03;4.07;;;2.73;;
22184;SDS011;11258;52.516;13.318;2023-11-19T09:27:30;5.27;;;3.43;;
22184;SDS011;11258;52.516;13.318;2023-11-19T09:29:55;4.83;;;3.53;;
22184;SDS011;11258;52.516;13.318;2023-11-19T09:32:23;3.37;;;2.60;;
22184;SDS011;11258;52.516;13.318;2023-11-19T09:34:49;4.07;;;2.67;;
22184;SDS011;11258;52.516;13.318;2023-11-19T09:37:15;5.40;;;2.70;;
22184;SDS011;11258;52.516;13.318;2023-11-19T09:39:40;2.97;;;2.47;;
22184;SDS011;11258;52.516;13.318;2023-11-19T09:42:09;5.00;;;2.70;;
22184;SDS011;11258;52.516;13.318;2023-11-19T09:44:36;4.17;;;2.37;;
22184;SDS011;11258;52.516;13.318;2023-11-19T09:47:04;2.20;;;1.93;;
22184;SDS011;11258;52.516;13.318;2023-11-19T09:49:31;6.23;;;2.17;;
22184;SDS011;11258;52.516;13.318;2023-11-19T09:51:59;3.80;;;1.90;;
22184;SDS011;11258;52.516;13.318;2023-11-19T09:54:25;3.13;;;1.90;;
22184;SDS011;11258;52.516;13.318;2023-11-19T09:56:51;7.63;;;4.33;;
22184;SDS011;11258;52.516;13.318;2023-11-19T09:59:17;10.57;;;4.43;;
22184;SDS011;11258;52.516;13.318;2023-11-19T10:01:43;9.30;;;4.97;;
22184;SDS011;11258;52.516;13.318;2023-11-19T10:04:10;3.33;;;2.03;;
22184;SDS011;11258;52.516;13.318;2023-11-19T10:06:41;2.23;;;1.57;;
22184;SDS011;11258;52.516;13.318;2023-11-19T10:09:07;2.17;;;1.40;;
22184;SDS011;11258;52.516;13.318;2023-11-19T10:11:33;3.20;;;1.40;;
22184;SDS011;11258;52.516;13.318;2023-11-19T10:13:59;3.43;;;1.23;;
22184;SDS011;11258;52.516;13.318;2023-11-19T10:16:28;2.77;;;1.23;;
22184;SDS011;11258;52.516;13.318;2023-11-19T10:18:55;3.03;;;1.43;;
22184;SDS011;11258;52.516;13.318;2023-11-19T10:21:21;5.27;;;1.63;;
22184;SDS011;11258;52.516;13.318;2023-11-19T10:23:56;1.90;;;1.40;;
22184;SDS011;11258;52.516;13.318;2023-11-19T10:26:25;2.80;;;1.40;;
22184;SDS011;11258;52.516;13.318;2023-11-19T10:28:51;2.63;;;1.33;;
22184;SDS011;11258;52.516;13.318;2023-11-19T10:31:18;1.27;;;1.00;;
22184;SDS011;11258;52.516;13.318;2023-11-19T10:33:45;3.40;;;1.70;;
22184;SDS011;11258;52.516;13.318;2023-11-19T10:36:11;1.93;;;1.37;;
22184;SDS011;11258;52.516;13.318;2023-11-19T10:38:37;1.23;;;1.10;;
22184;SDS011;11258;52.516;13.318;2023-11-19T10:41:04;2.13;;;1.23;;
22184;SDS011;11258;52.516;13.318;2023-11-19T10:43:30;3.27;;;1.30;;
22184;SDS011;11258;52.516;13.318;2023-11-19T10:46:12;3.13;;;1.20;;
22184;SDS011;11258;52.516;13.318;2023-11-19T10:48:38;2.90;;;1.23;;
22184;SDS011;11258;52.516;13.318;2023-11-19T10:51:06;7.43;;;2.00;;
22184;SDS011;11258;52.516;13.318;2023-11-19T10:53:36;3.33;;;1.60;;
22184;SDS011;11258;52.516;13.318;2023-11-19T10:56:06;2.43;;;1.50;;
22184;SDS011;11258;52.516;13.318;2023-11-19T10:58:36;5.80;;;2.03;;
22184;SDS011;11258;52.516;13.318;2023-11-19T11:01:07;7.40;;;1.53;;
22184;SDS011;11258;52.516;13.318;2023-11-19T11:03:41;4.00;;;1.67;;
22184;SDS011;11258;52.516;13.318;2023-11-19T11:06:10;3.47;;;1.60;;
22184;SDS011;11258;52.516;13.318;2023-11-19T11:08:38;5.50;;;1.80;;
22184;SDS011;11258;52.516;13.318;2023-11-19T11:11:04;6.67;;;2.07;;
22184;SDS011;11258;52.516;13.318;2023-11-19T11:13:31;9.63;;;2.00;;
22184;SDS011;11258;52.516;13.318;2023-11-19T11:15:58;5.67;;;1.80;;
22184;SDS011;11258;52.516;13.318;2023-11-19T11:18:25;5.73;;;1.77;;
22184;SDS011;11258;52.516;13.318;2023-11-19T11:20:52;9.57;;;3.07;;
22184;SDS011;11258;52.516;13.318;2023-11-19T11:34:48;11.20;;;3.13;;
22184;SDS011;11258;52.516;13.318;2023-11-19T11:37:32;6.40;;;2.23;;
22184;SDS011;11258;52.516;13.318;2023-11-19T11:40:13;9.37;;;2.13;;
22184;SDS011;11258;52.516;13.318;2023-11-19T11:42:41;11.50;;;2.30;;
22184;SDS011;11258;52.516;13.318;2023-11-19T11:45:07;7.23;;;2.40;;
22184;SDS011;11258;52.516;13.318;2023-11-19T11:50:10;7.73;;;2.80;;
22184;SDS011;11258;52.516;13.318;2023-11-19T11:58:05;6.60;;;2.33;;
22184;SDS011;11258;52.516;13.318;2023-11-19T12:02:57;6.33;;;2.93;;
22184;SDS011;11258;52.516;13.318;2023-11-19T12:05:24;10.70;;;2.60;;
22184;SDS011;11258;52.516;13.318;2023-11-19T12:07:54;8.47;;;3.30;;
22184;SDS011;11258;52.516;13.318;2023-11-19T12:10:23;9.50;;;2.60;;
22184;SDS011;11258;52.516;13.318;2023-11-19T12:12:52;8.93;;;2.40;;
22184;SDS011;11258;52.516;13.318;2023-11-19T12:15:18;12.27;;;3.17;;
22184;SDS011;11258;52.516;13.318;2023-11-19T12:17:50;11.17;;;2.57;;
22184;SDS011;11258;52.516;13.318;2023-11-19T12:20:20;7.40;;;2.30;;
22184;SDS011;11258;52.516;13.318;2023-11-19T12:22:49;12.20;;;3.53;;
22184;SDS011;11258;52.516;13.318;2023-11-19T12:25:16;9.53;;;2.93;;
22184;SDS011;11258;52.516;13.318;2023-11-19T12:30:09;13.23;;;3.40;;
22184;SDS011;11258;52.516;13.318;2023-11-19T12:32:41;6.83;;;2.50;;
22184;SDS011;11258;52.516;13.318;2023-11-19T12:35:08;8.17;;;2.20;;
22184;SDS011;11258;52.516;13.318;2023-11-19T12:37:41;12.50;;;2.80;;
22184;SDS011;11258;52.516;13.318;2023-11-19T12:40:14;11.23;;;2.60;;
22184;SDS011;11258;52.516;13.318;2023-11-19T12:42:51;8.93;;;2.67;;
22184;SDS011;11258;52.516;13.318;2023-11-19T12:45:18;13.80;;;4.07;;
22184;SDS011;11258;52.516;13.318;2023-11-19T12:47:45;11.50;;;2.73;;
22184;SDS011;11258;52.516;13.318;2023-11-19T12:50:15;10.00;;;2.83;;
22184;SDS011;11258;52.516;13.318;2023-11-19T12:52:57;7.47;;;3.00;;
22184;SDS011;11258;52.516;13.318;2023-11-19T12:55:27;10.17;;;2.93;;
22184;SDS011;11258;52.516;13.318;2023-11-19T12:57:54;17.63;;;3.07;;
22184;SDS011;11258;52.516;13.318;2023-11-19T13:00:21;11.33;;;2.83;;
22184;SDS011;11258;52.516;13.318;2023-11-19T13:02:49;10.23;;;2.97;;
22184;SDS011;11258;52.516;13.318;2023-11-19T13:07:58;15.87;;;3.07;;
22184;SDS011;11258;52.516;13.318;2023-11-19T13:10:34;13.70;;;3.37;;
22184;SDS011;11258;52.516;13.318;2023-11-19T13:13:18;11.87;;;3.43;;
22184;SDS011;11258;52.516;13.318;2023-11-19T13:15:44;11.27;;;2.37;;
22184;SDS011;11258;52.516;13.318;2023-11-19T13:18:10;9.90;;;3.03;;
22184;SDS011;11258;52.516;13.318;2023-11-19T13:20:36;10.70;;;3.53;;
22184;SDS011;11258;52.516;13.318;2023-11-19T13:23:02;9.33;;;2.63;;
22184;SDS011;11258;52.516;13.318;2023-11-19T13:25:29;15.13;;;3.13;;
22184;SDS011;11258;52.516;13.318;2023-11-19T13:27:55;12.57;;;2.73;;
22184;SDS011;11258;52.516;13.318;2023-11-19T13:30:22;13.73;;;3.53;;
22184;SDS011;11258;52.516;13.318;2023-11-19T13:32:49;12.00;;;4.07;;
22184;SDS011;11258;52.516;13.318;2023-11-19T13:35:16;13.17;;;2.70;;
22184;SDS011;11258;52.516;13.318;2023-11-19T13:37:42;14.43;;;3.47;;
22184;SDS011;11258;52.516;13.318;2023-11-19T13:40:08;10.03;;;3.03;;
22184;SDS011;11258;52.516;13.318;2023-11-19T13:42:37;15.43;;;3.70;;
22184;SDS011;11258;52.516;13.318;2023-11-19T13:45:07;12.90;;;2.60;;
22184;SDS011;11258;52.516;13.318;2023-11-19T13:47:41;15.00;;;2.67;;
22184;SDS011;11258;52.516;13.318;2023-11-19T13:50:11;15.40;;;3.30;;
22184;SDS011;11258;52.516;13.318;2023-11-19T13:52:41;12.00;;;3.37;;
22184;SDS011;11258;52.516;13.318;2023-11-19T13:55:10;14.80;;;3.27;;
22184;SDS011;11258;52.516;13.318;2023-11-19T13:57:36;16.83;;;3.73;;
22184;SDS011;11258;52.516;13.318;2023-11-19T14:00:06;13.80;;;3.47;;
22184;SDS011;11258;52.516;13.318;2023-11-19T14:02:38;11.80;;;3.97;;
22184;SDS011;11258;52.516;13.318;2023-11-19T14:05:08;9.23;;;3.47;;
22184;SDS011;11258;52.516;13.318;2023-11-19T14:07:34;15.93;;;3.57;;
22184;SDS011;11258;52.516;13.318;2023-11-19T14:09:59;12.33;;;3.30;;
22184;SDS011;11258;52.516;13.318;2023-11-19T14:12:25;19.00;;;4.17;;
22184;SDS011;11258;52.516;13.318;2023-11-19T14:14:51;10.70;;;3.53;;
22184;SDS011;11258;52.516;13.318;2023-11-19T14:17:17;15.23;;;3.47;;
22184;SDS011;11258;52.516;13.318;2023-11-19T14:19:43;9.30;;;3.10;;
22184;SDS011;11258;52.516;13.318;2023-11-19T14:22:09;10.40;;;2.80;;
22184;SDS011;11258;52.516;13.318;2023-11-19T14:24:35;12.13;;;3.70;;
22184;SDS011;11258;52.516;13.318;2023-11-19T14:27:01;12.50;;;3.03;;
22184;SDS011;11258;52.516;13.318;2023-11-19T14:29:27;13.07;;;2.90;;
22184;SDS011;11258;52.516;13.318;2023-11-19T14:31:56;21.73;;;3.67;;
22184;SDS011;11258;52.516;13.318;2023-11-19T14:34:23;21.17;;;3.63;;
22184;SDS011;11258;52.516;13.318;2023-11-19T14:36:51;6.07;;;2.40;;
22184;SDS011;11258;52.516;13.318;2023-11-19T14:39:17;13.47;;;3.77;;
22184;SDS011;11258;52.516;13.318;2023-11-19T14:41:42;15.20;;;2.97;;
22184;SDS011;11258;52.516;13.318;2023-11-19T14:44:11;16.83;;;3.80;;
22184;SDS011;11258;52.516;13.318;2023-11-19T14:46:37;14.80;;;3.10;;
22184;SDS011;11258;52.516;13.318;2023-11-19T14:49:03;12.13;;;2.93;;
22184;SDS011;11258;52.516;13.318;2023-11-19T14:51:29;14.53;;;3.67;;
22184;SDS011;11258;52.516;13.318;2023-11-19T14:53:55;15.43;;;3.97;;
22184;SDS011;11258;52.516;13.318;2023-11-19T14:56:21;21.83;;;3.87;;
22184;SDS011;11258;52.516;13.318;2023-11-19T14:58:46;17.37;;;3.27;;